sensor_id;sensor_type;location;lat;lon;timestamp;P1;durP1;ratioP1;P2;durP2;ratioP2
56122;SDS011;42426;46.104;19.656;2022-11-20T00:01:08;35.15;;;17.63;;
56122;SDS011;42426;46.104;19.656;2022-11-20T00:03:36;30.13;;;16.08;;
56122;SDS011;42426;46.104;19.656;2022-11-20T00:06:06;27.48;;;16.17;;
56122;SDS011;42426;46.104;19.656;2022-11-20T00:08:33;29.42;;;16.83;;
56122;SDS011;42426;46.104;19.656;2022-11-20T00:11:10;31.45;;;17.10;;
56122;SDS011;42426;46.104;19.656;2022-11-20T00:13:47;31.30;;;17.67;;
56122;SDS011;42426;46.104;19.656;2022-11-20T00:16:15;34.83;;;17.77;;
56122;SDS011;42426;46.104;19.656;2022-11-20T00:18:43;34.10;;;17.80;;
56122;SDS011;42426;46.104;19.656;2022-11-20T00:21:11;32.92;;;19.65;;
56122;SDS011;42426;46.104;19.656;2022-11-20T00:23:38;36.67;;;17.95;;
56122;SDS011;42426;46.104;19.656;2022-11-20T00:26:08;34.67;;;17.42;;
56122;SDS011;42426;46.104;19.656;2022-11-20T00:28:35;37.15;;;18.55;;
56122;SDS011;42426;46.104;19.656;2022-11-20T00:31:06;31.00;;;16.23;;
56122;SDS011;42426;46.104;19.656;2022-11-20T00:33:34;31.80;;;16.27;;
56122;SDS011;42426;46.104;19.656;2022-11-20T00:36:03;37.38;;;16.48;;
56122;SDS011;42426;46.104;19.656;2022-11-20T00:38:33;28.92;;;16.27;;
56122;SDS011;42426;46.104;19.656;2022-11-20T00:41:00;30.27;;;18.10;;
56122;SDS011;42426;46.104;19.656;2022-11-20T00:43:28;33.95;;;17.83;;
56122;SDS011;42426;46.104;19.656;2022-11-20T00:45:57;32.10;;;18.00;;
56122;SDS011;42426;46.104;19.656;2022-11-20T00:48:27;30.95;;;17.40;;
56122;SDS011;42426;46.104;19.656;2022-11-20T00:50:54;33.60;;;17.17;;
56122;SDS011;42426;46.104;19.656;2022-11-20T00:53:20;32.22;;;16.92;;
56122;SDS011;42426;46.104;19.656;2022-11-20T00:55:53;26.25;;;16.50;;
56122;SDS011;42426;46.104;19.656;2022-11-20T00:58:29;33.30;;;18.48;;
56122;SDS011;42426;46.104;19.656;2022-11-20T01:01:03;28.90;;;16.95;;
56122;SDS011;42426;46.104;19.656;2022-11-20T01:03:35;29.85;;;16.98;;
56122;SDS011;42426;46.104;19.656;2022-11-20T01:06:03;28.35;;;18.52;;
56122;SDS011;42426;46.104;19.656;2022-11-20T01:08:34;30.05;;;17.30;;
56122;SDS011;42426;46.104;19.656;2022-11-20T01:11:02;28.02;;;16.58;;
56122;SDS011;42426;46.104;19.656;2022-11-20T01:13:29;25.27;;;15.25;;
56122;SDS011;42426;46.104;19.656;2022-11-20T01:18:32;26.77;;;14.90;;
56122;SDS011;42426;46.104;19.656;2022-11-20T01:21:04;28.35;;;15.98;;
56122;SDS011;42426;46.104;19.656;2022-11-20T01:23:32;31.88;;;17.00;;
56122;SDS011;42426;46.104;19.656;2022-11-20T01:26:00;31.52;;;16.95;;
56122;SDS011;42426;46.104;19.656;2022-11-20T01:28:32;29.40;;;16.88;;
56122;SDS011;42426;46.104;19.656;2022-11-20T01:30:59;31.73;;;18.52;;
56122;SDS011;42426;46.104;19.656;2022-11-20T01:33:25;29.33;;;16.42;;
56122;SDS011;42426;46.104;19.656;2022-11-20T01:35:52;30.95;;;16.83;;
56122;SDS011;42426;46.104;19.656;2022-11-20T01:38:18;30.60;;;17.15;;
56122;SDS011;42426;46.104;19.656;2022-11-20T01:40:54;29.73;;;18.70;;
56122;SDS011;42426;46.104;19.656;2022-11-20T01:43:21;33.10;;;18.52;;
56122;SDS011;42426;46.104;19.656;2022-11-20T01:48:35;29.00;;;16.33;;
56122;SDS011;42426;46.104;19.656;2022-11-20T01:51:13;29.58;;;17.02;;
56122;SDS011;42426;46.104;19.656;2022-11-20T01:53:48;32.97;;;18.33;;
56122;SDS011;42426;46.104;19.656;2022-11-20T01:56:14;31.08;;;17.83;;
56122;SDS011;42426;46.104;19.656;2022-11-20T01:58:42;29.48;;;17.27;;
56122;SDS011;42426;46.104;19.656;2022-11-20T02:01:13;31.45;;;16.42;;
56122;SDS011;42426;46.104;19.656;2022-11-20T02:03:39;34.83;;;16.73;;
56122;SDS011;42426;46.104;19.656;2022-11-20T02:08:37;31.77;;;17.27;;
56122;SDS011;42426;46.104;19.656;2022-11-20T02:11:06;29.38;;;15.70;;
56122;SDS011;42426;46.104;19.656;2022-11-20T02:13:32;25.92;;;16.27;;
56122;SDS011;42426;46.104;19.656;2022-11-20T02:16:11;30.23;;;16.25;;
56122;SDS011;42426;46.104;19.656;2022-11-20T02:18:39;28.65;;;17.50;;
56122;SDS011;42426;46.104;19.656;2022-11-20T02:23:52;33.97;;;18.67;;
56122;SDS011;42426;46.104;19.656;2022-11-20T02:26:24;29.52;;;16.88;;
56122;SDS011;42426;46.104;19.656;2022-11-20T02:28:52;29.67;;;16.30;;
56122;SDS011;42426;46.104;19.656;2022-11-20T02:31:19;32.40;;;17.50;;
56122;SDS011;42426;46.104;19.656;2022-11-20T02:33:46;30.73;;;18.98;;
56122;SDS011;42426;46.104;19.656;2022-11-20T02:36:13;32.75;;;18.30;;
56122;SDS011;42426;46.104;19.656;2022-11-20T02:38:41;28.77;;;16.58;;
56122;SDS011;42426;46.104;19.656;2022-11-20T02:41:08;32.00;;;16.63;;
56122;SDS011;42426;46.104;19.656;2022-11-20T02:43:33;30.73;;;17.25;;
56122;SDS011;42426;46.104;19.656;2022-11-20T02:45:59;28.50;;;16.20;;
56122;SDS011;42426;46.104;19.656;2022-11-20T02:48:25;34.38;;;18.48;;
56122;SDS011;42426;46.104;19.656;2022-11-20T02:50:51;30.33;;;17.45;;
56122;SDS011;42426;46.104;19.656;2022-11-20T02:53:16;33.00;;;18.65;;
56122;SDS011;42426;46.104;19.656;2022-11-20T02:55:43;29.33;;;16.38;;
56122;SDS011;42426;46.104;19.656;2022-11-20T02:58:09;30.50;;;17.88;;
56122;SDS011;42426;46.104;19.656;2022-11-20T03:00:35;30.00;;;15.98;;
56122;SDS011;42426;46.104;19.656;2022-11-20T03:03:01;30.42;;;17.10;;
56122;SDS011;42426;46.104;19.656;2022-11-20T03:05:26;29.85;;;17.20;;
56122;SDS011;42426;46.104;19.656;2022-11-20T03:07:52;30.20;;;16.70;;
56122;SDS011;42426;46.104;19.656;2022-11-20T03:10:18;28.48;;;18.50;;
56122;SDS011;42426;46.104;19.656;2022-11-20T03:12:44;30.33;;;17.63;;
56122;SDS011;42426;46.104;19.656;2022-11-20T03:15:12;29.00;;;15.80;;
56122;SDS011;42426;46.104;19.656;2022-11-20T03:17:38;25.83;;;17.27;;
56122;SDS011;42426;46.104;19.656;2022-11-20T03:20:04;33.45;;;17.85;;
56122;SDS011;42426;46.104;19.656;2022-11-20T03:22:30;31.35;;;16.75;;
56122;SDS011;42426;46.104;19.656;2022-11-20T03:24:56;28.75;;;16.35;;
56122;SDS011;42426;46.104;19.656;2022-11-20T03:27:23;32.88;;;17.38;;
56122;SDS011;42426;46.104;19.656;2022-11-20T03:29:49;29.52;;;17.15;;
56122;SDS011;42426;46.104;19.656;2022-11-20T03:32:14;32.55;;;18.08;;
56122;SDS011;42426;46.104;19.656;2022-11-20T03:34:40;33.15;;;17.35;;
56122;SDS011;42426;46.104;19.656;2022-11-20T03:37:06;26.90;;;16.85;;
56122;SDS011;42426;46.104;19.656;2022-11-20T03:39:32;29.35;;;17.05;;
56122;SDS011;42426;46.104;19.656;2022-11-20T03:41:57;34.58;;;18.92;;
56122;SDS011;42426;46.104;19.656;2022-11-20T03:44:23;28.42;;;16.33;;
56122;SDS011;42426;46.104;19.656;2022-11-20T03:46:49;31.35;;;18.08;;
56122;SDS011;42426;46.104;19.656;2022-11-20T03:49:15;29.42;;;16.67;;
56122;SDS011;42426;46.104;19.656;2022-11-20T03:51:40;32.55;;;17.70;;
56122;SDS011;42426;46.104;19.656;2022-11-20T03:54:07;26.63;;;17.40;;
56122;SDS011;42426;46.104;19.656;2022-11-20T03:56:34;32.08;;;16.83;;
56122;SDS011;42426;46.104;19.656;2022-11-20T03:59:02;34.20;;;16.92;;
56122;SDS011;42426;46.104;19.656;2022-11-20T04:01:37;29.85;;;16.63;;
56122;SDS011;42426;46.104;19.656;2022-11-20T04:04:03;29.85;;;16.88;;
56122;SDS011;42426;46.104;19.656;2022-11-20T04:06:32;30.48;;;15.63;;
56122;SDS011;42426;46.104;19.656;2022-11-20T04:08:59;25.20;;;16.02;;
56122;SDS011;42426;46.104;19.656;2022-11-20T04:11:35;31.60;;;17.80;;
56122;SDS011;42426;46.104;19.656;2022-11-20T04:14:05;32.55;;;16.80;;
56122;SDS011;42426;46.104;19.656;2022-11-20T04:16:36;29.05;;;16.33;;
56122;SDS011;42426;46.104;19.656;2022-11-20T04:19:03;28.52;;;17.25;;
56122;SDS011;42426;46.104;19.656;2022-11-20T04:21:31;30.85;;;17.05;;
56122;SDS011;42426;46.104;19.656;2022-11-20T04:23:57;27.05;;;15.05;;
56122;SDS011;42426;46.104;19.656;2022-11-20T04:26:24;29.08;;;16.83;;
56122;SDS011;42426;46.104;19.656;2022-11-20T04:28:51;33.17;;;17.55;;
56122;SDS011;42426;46.104;19.656;2022-11-20T04:31:18;27.63;;;16.27;;
56122;SDS011;42426;46.104;19.656;2022-11-20T04:33:46;25.20;;;15.15;;
56122;SDS011;42426;46.104;19.656;2022-11-20T04:36:14;27.15;;;15.05;;
56122;SDS011;42426;46.104;19.656;2022-11-20T04:38:40;30.95;;;17.13;;
56122;SDS011;42426;46.104;19.656;2022-11-20T04:41:07;30.15;;;15.68;;
56122;SDS011;42426;46.104;19.656;2022-11-20T04:43:36;28.88;;;17.05;;
56122;SDS011;42426;46.104;19.656;2022-11-20T04:46:01;27.73;;;16.17;;
56122;SDS011;42426;46.104;19.656;2022-11-20T04:48:28;31.98;;;17.55;;
56122;SDS011;42426;46.104;19.656;2022-11-20T04:50:54;34.35;;;18.10;;
56122;SDS011;42426;46.104;19.656;2022-11-20T04:53:20;33.90;;;19.05;;
56122;SDS011;42426;46.104;19.656;2022-11-20T04:55:47;31.88;;;16.80;;
56122;SDS011;42426;46.104;19.656;2022-11-20T04:58:13;30.33;;;17.75;;
56122;SDS011;42426;46.104;19.656;2022-11-20T05:00:40;33.58;;;18.48;;
56122;SDS011;42426;46.104;19.656;2022-11-20T05:03:06;31.83;;;17.42;;
56122;SDS011;42426;46.104;19.656;2022-11-20T05:05:33;37.38;;;18.77;;
56122;SDS011;42426;46.104;19.656;2022-11-20T05:07:59;28.73;;;17.50;;
56122;SDS011;42426;46.104;19.656;2022-11-20T05:10:25;29.52;;;17.08;;
56122;SDS011;42426;46.104;19.656;2022-11-20T05:12:51;30.45;;;17.25;;
56122;SDS011;42426;46.104;19.656;2022-11-20T05:15:17;29.17;;;17.42;;
56122;SDS011;42426;46.104;19.656;2022-11-20T05:17:49;34.17;;;19.08;;
56122;SDS011;42426;46.104;19.656;2022-11-20T05:20:18;35.90;;;17.63;;
56122;SDS011;42426;46.104;19.656;2022-11-20T05:22:44;33.00;;;18.13;;
56122;SDS011;42426;46.104;19.656;2022-11-20T05:25:10;30.77;;;17.35;;
56122;SDS011;42426;46.104;19.656;2022-11-20T05:27:37;30.95;;;17.60;;
56122;SDS011;42426;46.104;19.656;2022-11-20T05:30:03;33.67;;;17.50;;
56122;SDS011;42426;46.104;19.656;2022-11-20T05:32:30;29.83;;;16.90;;
56122;SDS011;42426;46.104;19.656;2022-11-20T05:34:55;31.10;;;16.23;;
56122;SDS011;42426;46.104;19.656;2022-11-20T05:37:21;32.17;;;18.15;;
56122;SDS011;42426;46.104;19.656;2022-11-20T05:39:47;34.03;;;17.95;;
56122;SDS011;42426;46.104;19.656;2022-11-20T05:42:13;30.85;;;18.13;;
56122;SDS011;42426;46.104;19.656;2022-11-20T05:45:00;35.63;;;18.77;;
56122;SDS011;42426;46.104;19.656;2022-11-20T05:47:28;33.83;;;18.63;;
56122;SDS011;42426;46.104;19.656;2022-11-20T05:49:57;33.17;;;18.17;;
56122;SDS011;42426;46.104;19.656;2022-11-20T05:52:23;37.75;;;19.00;;
56122;SDS011;42426;46.104;19.656;2022-11-20T05:54:49;31.45;;;16.95;;
56122;SDS011;42426;46.104;19.656;2022-11-20T05:57:15;31.45;;;17.45;;
56122;SDS011;42426;46.104;19.656;2022-11-20T05:59:42;31.73;;;18.05;;
56122;SDS011;42426;46.104;19.656;2022-11-20T06:02:07;35.58;;;18.73;;
56122;SDS011;42426;46.104;19.656;2022-11-20T06:04:33;35.03;;;18.38;;
56122;SDS011;42426;46.104;19.656;2022-11-20T06:07:00;26.60;;;17.15;;
56122;SDS011;42426;46.104;19.656;2022-11-20T06:09:25;30.25;;;17.50;;
56122;SDS011;42426;46.104;19.656;2022-11-20T06:11:51;28.30;;;17.25;;
56122;SDS011;42426;46.104;19.656;2022-11-20T06:14:17;33.45;;;17.70;;
56122;SDS011;42426;46.104;19.656;2022-11-20T06:16:48;31.75;;;17.73;;
56122;SDS011;42426;46.104;19.656;2022-11-20T06:19:14;35.45;;;18.83;;
56122;SDS011;42426;46.104;19.656;2022-11-20T06:21:42;34.50;;;19.60;;
56122;SDS011;42426;46.104;19.656;2022-11-20T06:24:10;31.08;;;16.98;;
56122;SDS011;42426;46.104;19.656;2022-11-20T06:26:36;32.40;;;17.55;;
56122;SDS011;42426;46.104;19.656;2022-11-20T06:29:03;35.03;;;18.60;;
56122;SDS011;42426;46.104;19.656;2022-11-20T06:31:29;33.28;;;18.50;;
56122;SDS011;42426;46.104;19.656;2022-11-20T06:33:57;32.45;;;18.85;;
56122;SDS011;42426;46.104;19.656;2022-11-20T06:36:23;34.40;;;19.45;;
56122;SDS011;42426;46.104;19.656;2022-11-20T06:38:49;32.05;;;18.13;;
56122;SDS011;42426;46.104;19.656;2022-11-20T06:41:16;39.42;;;20.65;;
56122;SDS011;42426;46.104;19.656;2022-11-20T06:43:44;32.10;;;18.67;;
56122;SDS011;42426;46.104;19.656;2022-11-20T06:46:10;32.80;;;19.35;;
56122;SDS011;42426;46.104;19.656;2022-11-20T06:48:36;40.08;;;21.33;;
56122;SDS011;42426;46.104;19.656;2022-11-20T06:51:03;32.10;;;18.40;;
56122;SDS011;42426;46.104;19.656;2022-11-20T06:53:30;35.20;;;20.17;;
56122;SDS011;42426;46.104;19.656;2022-11-20T06:55:57;38.33;;;24.70;;
56122;SDS011;42426;46.104;19.656;2022-11-20T06:58:25;34.95;;;20.88;;
56122;SDS011;42426;46.104;19.656;2022-11-20T07:00:52;33.50;;;19.85;;
56122;SDS011;42426;46.104;19.656;2022-11-20T07:03:19;33.08;;;19.27;;
56122;SDS011;42426;46.104;19.656;2022-11-20T07:05:44;42.75;;;24.00;;
56122;SDS011;42426;46.104;19.656;2022-11-20T07:08:12;45.08;;;22.35;;
56122;SDS011;42426;46.104;19.656;2022-11-20T07:10:37;32.08;;;19.70;;
56122;SDS011;42426;46.104;19.656;2022-11-20T07:13:03;54.55;;;27.80;;
56122;SDS011;42426;46.104;19.656;2022-11-20T07:15:29;42.00;;;23.50;;
56122;SDS011;42426;46.104;19.656;2022-11-20T07:17:57;37.22;;;21.75;;
56122;SDS011;42426;46.104;19.656;2022-11-20T07:20:24;36.03;;;19.05;;
56122;SDS011;42426;46.104;19.656;2022-11-20T07:22:56;36.17;;;19.30;;
56122;SDS011;42426;46.104;19.656;2022-11-20T07:25:23;36.40;;;19.83;;
56122;SDS011;42426;46.104;19.656;2022-11-20T07:27:53;29.80;;;18.20;;
56122;SDS011;42426;46.104;19.656;2022-11-20T07:30:23;52.80;;;25.08;;
56122;SDS011;42426;46.104;19.656;2022-11-20T07:32:51;48.83;;;25.15;;
56122;SDS011;42426;46.104;19.656;2022-11-20T07:35:19;38.67;;;20.88;;
56122;SDS011;42426;46.104;19.656;2022-11-20T07:37:45;39.45;;;21.70;;
56122;SDS011;42426;46.104;19.656;2022-11-20T07:40:12;40.95;;;23.48;;
56122;SDS011;42426;46.104;19.656;2022-11-20T07:42:38;37.05;;;21.75;;
56122;SDS011;42426;46.104;19.656;2022-11-20T07:45:04;37.53;;;19.80;;
56122;SDS011;42426;46.104;19.656;2022-11-20T07:47:36;35.60;;;19.73;;
56122;SDS011;42426;46.104;19.656;2022-11-20T07:50:02;34.90;;;19.95;;
56122;SDS011;42426;46.104;19.656;2022-11-20T07:52:28;32.67;;;18.95;;
56122;SDS011;42426;46.104;19.656;2022-11-20T07:54:54;32.53;;;18.30;;
56122;SDS011;42426;46.104;19.656;2022-11-20T07:57:21;36.58;;;19.85;;
56122;SDS011;42426;46.104;19.656;2022-11-20T07:59:48;37.28;;;18.73;;
56122;SDS011;42426;46.104;19.656;2022-11-20T08:02:13;31.00;;;17.98;;
56122;SDS011;42426;46.104;19.656;2022-11-20T08:04:39;28.80;;;17.67;;
56122;SDS011;42426;46.104;19.656;2022-11-20T08:07:05;27.73;;;18.00;;
56122;SDS011;42426;46.104;19.656;2022-11-20T08:09:31;29.80;;;18.60;;
56122;SDS011;42426;46.104;19.656;2022-11-20T08:11:58;33.53;;;20.40;;
56122;SDS011;42426;46.104;19.656;2022-11-20T08:15:02;29.42;;;17.08;;
56122;SDS011;42426;46.104;19.656;2022-11-20T08:17:34;33.05;;;19.45;;
56122;SDS011;42426;46.104;19.656;2022-11-20T08:19:59;31.23;;;18.15;;
56122;SDS011;42426;46.104;19.656;2022-11-20T08:22:25;33.05;;;17.45;;
56122;SDS011;42426;46.104;19.656;2022-11-20T08:24:52;33.10;;;17.83;;
56122;SDS011;42426;46.104;19.656;2022-11-20T08:27:18;31.95;;;16.63;;
56122;SDS011;42426;46.104;19.656;2022-11-20T08:29:43;34.97;;;21.92;;
56122;SDS011;42426;46.104;19.656;2022-11-20T08:32:09;42.13;;;23.50;;
56122;SDS011;42426;46.104;19.656;2022-11-20T08:34:35;37.42;;;21.42;;
56122;SDS011;42426;46.104;19.656;2022-11-20T08:37:01;35.40;;;20.45;;
56122;SDS011;42426;46.104;19.656;2022-11-20T08:39:28;29.65;;;17.67;;
56122;SDS011;42426;46.104;19.656;2022-11-20T08:41:54;37.78;;;19.17;;
56122;SDS011;42426;46.104;19.656;2022-11-20T08:44:19;30.95;;;18.95;;
56122;SDS011;42426;46.104;19.656;2022-11-20T08:46:45;31.48;;;17.15;;
56122;SDS011;42426;46.104;19.656;2022-11-20T08:49:12;30.00;;;16.80;;
56122;SDS011;42426;46.104;19.656;2022-11-20T08:51:39;27.42;;;15.63;;
56122;SDS011;42426;46.104;19.656;2022-11-20T08:54:06;36.47;;;17.80;;
56122;SDS011;42426;46.104;19.656;2022-11-20T08:56:32;31.67;;;17.42;;
56122;SDS011;42426;46.104;19.656;2022-11-20T08:58:58;33.45;;;17.40;;
56122;SDS011;42426;46.104;19.656;2022-11-20T09:01:27;29.25;;;16.13;;
56122;SDS011;42426;46.104;19.656;2022-11-20T09:03:57;32.92;;;18.27;;
56122;SDS011;42426;46.104;19.656;2022-11-20T09:06:24;32.92;;;18.45;;
56122;SDS011;42426;46.104;19.656;2022-11-20T09:08:54;36.00;;;17.95;;
56122;SDS011;42426;46.104;19.656;2022-11-20T09:11:20;28.98;;;17.23;;
56122;SDS011;42426;46.104;19.656;2022-11-20T09:13:46;31.27;;;17.27;;
56122;SDS011;42426;46.104;19.656;2022-11-20T09:16:12;32.88;;;18.75;;
56122;SDS011;42426;46.104;19.656;2022-11-20T09:18:39;32.22;;;18.23;;
56122;SDS011;42426;46.104;19.656;2022-11-20T09:21:06;26.95;;;14.75;;
56122;SDS011;42426;46.104;19.656;2022-11-20T09:23:37;30.17;;;16.05;;
56122;SDS011;42426;46.104;19.656;2022-11-20T09:26:04;38.15;;;20.98;;
56122;SDS011;42426;46.104;19.656;2022-11-20T09:28:31;34.88;;;20.83;;
56122;SDS011;42426;46.104;19.656;2022-11-20T09:30:57;36.05;;;18.77;;
56122;SDS011;42426;46.104;19.656;2022-11-20T09:33:23;31.77;;;17.52;;
56122;SDS011;42426;46.104;19.656;2022-11-20T09:35:50;29.25;;;16.60;;
56122;SDS011;42426;46.104;19.656;2022-11-20T09:38:16;37.03;;;21.60;;
56122;SDS011;42426;46.104;19.656;2022-11-20T09:46:28;33.17;;;19.23;;
56122;SDS011;42426;46.104;19.656;2022-11-20T09:54:55;29.38;;;17.10;;
56122;SDS011;42426;46.104;19.656;2022-11-20T09:57:23;31.10;;;17.60;;
56122;SDS011;42426;46.104;19.656;2022-11-20T09:59:58;35.60;;;20.17;;
56122;SDS011;42426;46.104;19.656;2022-11-20T10:02:28;34.05;;;19.77;;
56122;SDS011;42426;46.104;19.656;2022-11-20T10:07:44;28.15;;;16.08;;
56122;SDS011;42426;46.104;19.656;2022-11-20T10:10:33;35.00;;;18.00;;
56122;SDS011;42426;46.104;19.656;2022-11-20T10:19:07;29.88;;;16.90;;
56122;SDS011;42426;46.104;19.656;2022-11-20T10:21:52;28.85;;;17.02;;
56122;SDS011;42426;46.104;19.656;2022-11-20T10:24:43;28.85;;;16.90;;
56122;SDS011;42426;46.104;19.656;2022-11-20T10:30:02;21.80;;;14.27;;
56122;SDS011;42426;46.104;19.656;2022-11-20T10:32:36;26.77;;;14.75;;
56122;SDS011;42426;46.104;19.656;2022-11-20T10:35:14;28.38;;;14.55;;
56122;SDS011;42426;46.104;19.656;2022-11-20T10:37:46;25.52;;;14.70;;
56122;SDS011;42426;46.104;19.656;2022-11-20T10:43:15;39.95;;;21.92;;
56122;SDS011;42426;46.104;19.656;2022-11-20T10:48:24;34.35;;;22.52;;
56122;SDS011;42426;46.104;19.656;2022-11-20T10:59:32;42.55;;;26.80;;
56122;SDS011;42426;46.104;19.656;2022-11-20T11:02:18;36.28;;;23.45;;
56122;SDS011;42426;46.104;19.656;2022-11-20T11:04:58;27.23;;;16.13;;
56122;SDS011;42426;46.104;19.656;2022-11-20T11:07:49;26.45;;;17.30;;
56122;SDS011;42426;46.104;19.656;2022-11-20T11:10:28;30.55;;;17.92;;
56122;SDS011;42426;46.104;19.656;2022-11-20T11:13:00;28.33;;;16.52;;
56122;SDS011;42426;46.104;19.656;2022-11-20T11:15:27;37.90;;;22.02;;
56122;SDS011;42426;46.104;19.656;2022-11-20T11:17:55;35.45;;;20.90;;
56122;SDS011;42426;46.104;19.656;2022-11-20T11:20:22;35.83;;;20.98;;
56122;SDS011;42426;46.104;19.656;2022-11-20T11:22:54;27.08;;;17.75;;
56122;SDS011;42426;46.104;19.656;2022-11-20T11:25:23;28.02;;;17.65;;
56122;SDS011;42426;46.104;19.656;2022-11-20T11:27:55;29.92;;;19.58;;
56122;SDS011;42426;46.104;19.656;2022-11-20T11:30:44;26.75;;;18.67;;
56122;SDS011;42426;46.104;19.656;2022-11-20T11:33:18;25.45;;;15.05;;
56122;SDS011;42426;46.104;19.656;2022-11-20T11:35:50;25.67;;;14.93;;
56122;SDS011;42426;46.104;19.656;2022-11-20T11:38:39;24.85;;;14.43;;
56122;SDS011;42426;46.104;19.656;2022-11-20T11:43:49;32.42;;;17.90;;
56122;SDS011;42426;46.104;19.656;2022-11-20T11:46:35;26.07;;;15.00;;
56122;SDS011;42426;46.104;19.656;2022-11-20T11:51:36;43.28;;;24.88;;
56122;SDS011;42426;46.104;19.656;2022-11-20T11:57:10;27.33;;;18.70;;
56122;SDS011;42426;46.104;19.656;2022-11-20T12:05:17;32.20;;;19.77;;
56122;SDS011;42426;46.104;19.656;2022-11-20T12:07:47;27.45;;;18.27;;
56122;SDS011;42426;46.104;19.656;2022-11-20T12:10:33;27.70;;;17.65;;
56122;SDS011;42426;46.104;19.656;2022-11-20T12:16:01;27.10;;;15.02;;
56122;SDS011;42426;46.104;19.656;2022-11-20T12:18:28;24.33;;;15.32;;
56122;SDS011;42426;46.104;19.656;2022-11-20T12:23:47;22.80;;;14.15;;
56122;SDS011;42426;46.104;19.656;2022-11-20T12:31:59;23.75;;;16.20;;
56122;SDS011;42426;46.104;19.656;2022-11-20T12:34:47;24.08;;;14.60;;
56122;SDS011;42426;46.104;19.656;2022-11-20T12:43:22;24.63;;;14.63;;
56122;SDS011;42426;46.104;19.656;2022-11-20T12:46:18;22.27;;;13.55;;
56122;SDS011;42426;46.104;19.656;2022-11-20T13:00:18;23.17;;;14.18;;
56122;SDS011;42426;46.104;19.656;2022-11-20T13:08:35;22.08;;;13.55;;
56122;SDS011;42426;46.104;19.656;2022-11-20T13:11:14;24.55;;;15.25;;
56122;SDS011;42426;46.104;19.656;2022-11-20T13:13:45;50.33;;;25.05;;
56122;SDS011;42426;46.104;19.656;2022-11-20T13:16:53;65.93;;;34.10;;
56122;SDS011;42426;46.104;19.656;2022-11-20T13:19:38;46.40;;;27.70;;
56122;SDS011;42426;46.104;19.656;2022-11-20T13:22:05;61.28;;;43.13;;
56122;SDS011;42426;46.104;19.656;2022-11-20T13:24:32;43.38;;;29.90;;
56122;SDS011;42426;46.104;19.656;2022-11-20T13:29:37;28.15;;;18.75;;
56122;SDS011;42426;46.104;19.656;2022-11-20T13:42:51;29.80;;;16.77;;
56122;SDS011;42426;46.104;19.656;2022-11-20T13:47:51;33.88;;;20.42;;
56122;SDS011;42426;46.104;19.656;2022-11-20T13:50:21;30.52;;;20.08;;
56122;SDS011;42426;46.104;19.656;2022-11-20T13:55:50;39.20;;;24.67;;
56122;SDS011;42426;46.104;19.656;2022-11-20T13:58:28;40.58;;;27.25;;
56122;SDS011;42426;46.104;19.656;2022-11-20T14:01:19;30.20;;;19.27;;
56122;SDS011;42426;46.104;19.656;2022-11-20T14:03:49;41.88;;;24.38;;
56122;SDS011;42426;46.104;19.656;2022-11-20T14:07:01;30.35;;;19.67;;
56122;SDS011;42426;46.104;19.656;2022-11-20T14:09:13;32.65;;;20.83;;
56122;SDS011;42426;46.104;19.656;2022-11-20T14:11:53;36.75;;;19.83;;
56122;SDS011;42426;46.104;19.656;2022-11-20T14:14:21;33.10;;;20.10;;
56122;SDS011;42426;46.104;19.656;2022-11-20T14:16:48;37.92;;;20.60;;
56122;SDS011;42426;46.104;19.656;2022-11-20T14:21:53;34.28;;;20.73;;
56122;SDS011;42426;46.104;19.656;2022-11-20T14:24:32;43.03;;;24.90;;
56122;SDS011;42426;46.104;19.656;2022-11-20T14:26:58;43.00;;;26.80;;
56122;SDS011;42426;46.104;19.656;2022-11-20T14:29:27;45.20;;;27.48;;
56122;SDS011;42426;46.104;19.656;2022-11-20T14:31:55;38.00;;;26.63;;
56122;SDS011;42426;46.104;19.656;2022-11-20T14:34:26;49.78;;;30.35;;
56122;SDS011;42426;46.104;19.656;2022-11-20T14:37:04;45.55;;;28.67;;
56122;SDS011;42426;46.104;19.656;2022-11-20T14:39:36;51.78;;;32.10;;
56122;SDS011;42426;46.104;19.656;2022-11-20T14:42:18;48.05;;;29.23;;
56122;SDS011;42426;46.104;19.656;2022-11-20T14:44:44;42.65;;;26.02;;
56122;SDS011;42426;46.104;19.656;2022-11-20T14:47:15;51.72;;;29.38;;
56122;SDS011;42426;46.104;19.656;2022-11-20T14:49:54;39.22;;;24.15;;
56122;SDS011;42426;46.104;19.656;2022-11-20T14:52:22;44.33;;;25.60;;
56122;SDS011;42426;46.104;19.656;2022-11-20T14:54:53;44.90;;;29.45;;
56122;SDS011;42426;46.104;19.656;2022-11-20T15:02:45;42.65;;;25.50;;
56122;SDS011;42426;46.104;19.656;2022-11-20T15:05:13;43.10;;;25.70;;
56122;SDS011;42426;46.104;19.656;2022-11-20T15:07:44;44.17;;;25.98;;
56122;SDS011;42426;46.104;19.656;2022-11-20T15:10:25;42.55;;;25.58;;
56122;SDS011;42426;46.104;19.656;2022-11-20T15:12:57;50.08;;;30.30;;
56122;SDS011;42426;46.104;19.656;2022-11-20T15:18:11;41.22;;;25.98;;
56122;SDS011;42426;46.104;19.656;2022-11-20T15:20:40;49.47;;;29.20;;
56122;SDS011;42426;46.104;19.656;2022-11-20T15:23:14;44.67;;;26.02;;
56122;SDS011;42426;46.104;19.656;2022-11-20T15:25:42;31.27;;;18.17;;
56122;SDS011;42426;46.104;19.656;2022-11-20T15:28:13;32.17;;;20.42;;
56122;SDS011;42426;46.104;19.656;2022-11-20T15:30:43;38.35;;;23.08;;
56122;SDS011;42426;46.104;19.656;2022-11-20T15:33:10;39.15;;;24.23;;
56122;SDS011;42426;46.104;19.656;2022-11-20T15:35:36;39.17;;;22.88;;
56122;SDS011;42426;46.104;19.656;2022-11-20T15:38:02;33.72;;;20.77;;
56122;SDS011;42426;46.104;19.656;2022-11-20T15:40:28;42.40;;;25.90;;
56122;SDS011;42426;46.104;19.656;2022-11-20T15:42:54;38.20;;;25.10;;
56122;SDS011;42426;46.104;19.656;2022-11-20T15:45:38;47.67;;;26.90;;
56122;SDS011;42426;46.104;19.656;2022-11-20T15:48:14;43.40;;;24.05;;
56122;SDS011;42426;46.104;19.656;2022-11-20T15:53:22;46.45;;;28.90;;
56122;SDS011;42426;46.104;19.656;2022-11-20T15:55:48;47.78;;;29.27;;
56122;SDS011;42426;46.104;19.656;2022-11-20T15:58:14;52.70;;;29.13;;
56122;SDS011;42426;46.104;19.656;2022-11-20T16:00:41;51.17;;;31.13;;
56122;SDS011;42426;46.104;19.656;2022-11-20T16:03:11;59.92;;;32.47;;
56122;SDS011;42426;46.104;19.656;2022-11-20T16:05:37;57.97;;;33.17;;
56122;SDS011;42426;46.104;19.656;2022-11-20T16:08:05;60.97;;;36.13;;
56122;SDS011;42426;46.104;19.656;2022-11-20T16:10:31;78.63;;;51.67;;
56122;SDS011;42426;46.104;19.656;2022-11-20T16:12:56;65.85;;;41.28;;
56122;SDS011;42426;46.104;19.656;2022-11-20T16:15:41;70.63;;;43.47;;
56122;SDS011;42426;46.104;19.656;2022-11-20T16:18:17;84.55;;;53.00;;
56122;SDS011;42426;46.104;19.656;2022-11-20T16:20:45;70.45;;;46.58;;
56122;SDS011;42426;46.104;19.656;2022-11-20T16:23:13;70.35;;;42.28;;
56122;SDS011;42426;46.104;19.656;2022-11-20T16:25:40;68.20;;;38.08;;
56122;SDS011;42426;46.104;19.656;2022-11-20T16:28:06;43.25;;;28.02;;
56122;SDS011;42426;46.104;19.656;2022-11-20T16:30:33;65.88;;;36.15;;